Time;durP1;ratioP1;P1;durP2;ratioP2;P2;SDS_P1;SDS_P2;PMS_P1;PMS_P2;Temp;Humidity;BMP_temperature;BMP_pressure;BME280_temperature;BME280_humidity;BME280_pressure;Samples;Min_cycle;Max_cycle;Signal;HPM_P1;HPM_P2
2023/01/18 00:01:50;;;;;;;19.75;12.27;;;-1.70;99.90;;;;;;5057737;28;20045;-48
2023/01/18 00:04:17;;;;;;;20.10;11.55;;;-1.70;99.90;;;;;;5057050;28;20395;-52
2023/01/18 00:06:44;;;;;;;17.83;11.13;;;-1.70;99.90;;;;;;5057314;28;20041;-52
2023/01/18 00:09:11;;;;;;;18.63;11.45;;;-1.70;99.90;;;;;;5055844;28;20045;-49
2023/01/18 00:11:39;;;;;;;18.52;11.93;;;-1.70;99.90;;;;;;5057062;28;20068;-54
2023/01/18 00:14:06;;;;;;;16.63;11.20;;;-1.70;99.90;;;;;;5057619;28;20111;-53
2023/01/18 00:16:33;;;;;;;17.45;10.80;;;-1.70;99.90;;;;;;5056690;28;20484;-54
2023/01/18 00:18:59;;;;;;;17.48;11.45;;;-1.80;99.90;;;;;;5056852;28;20535;-55
2023/01/18 00:21:26;;;;;;;16.85;11.35;;;-1.80;99.90;;;;;;5056786;28;20124;-49
2023/01/18 00:23:53;;;;;;;17.65;11.52;;;-1.80;99.90;;;;;;5056795;28;20037;-52
2023/01/18 00:26:20;;;;;;;17.58;11.10;;;-1.70;99.90;;;;;;5057121;28;20041;-55
2023/01/18 00:28:46;;;;;;;18.15;10.90;;;-1.80;99.90;;;;;;5056801;28;20464;-53
2023/01/18 00:31:13;;;;;;;16.00;10.15;;;-1.80;99.90;;;;;;5056683;28;20047;-50
2023/01/18 00:33:40;;;;;;;17.13;10.30;;;-1.80;99.90;;;;;;5057254;28;20460;-53
2023/01/18 00:36:07;;;;;;;16.90;10.93;;;-1.80;99.90;;;;;;5056675;28;20498;-51
2023/01/18 00:38:34;;;;;;;13.00;9.00;;;-1.80;99.90;;;;;;5057033;28;20071;-50
2023/01/18 00:41:01;;;;;;;15.80;9.80;;;-1.80;99.90;;;;;;5056353;28;20048;-53
2023/01/18 00:43:39;;;;;;;14.13;9.70;;;-1.80;99.90;;;;;;5056683;28;20069;-51
2023/01/18 00:46:06;;;;;;;20.95;10.15;;;-1.80;99.90;;;;;;5056427;28;20142;-50
2023/01/18 00:48:33;;;;;;;14.05;8.70;;;-1.80;99.90;;;;;;5056316;28;20040;-51
2023/01/18 00:51:00;;;;;;;13.60;8.80;;;-1.70;99.90;;;;;;5055471;28;20049;-53
2023/01/18 00:53:26;;;;;;;13.23;8.63;;;-1.70;99.90;;;;;;5056855;28;20041;-53
2023/01/18 00:55:53;;;;;;;12.32;8.02;;;-1.70;99.90;;;;;;5056400;28;20053;-51
2023/01/18 00:58:20;;;;;;;11.82;8.15;;;-1.70;99.90;;;;;;5056332;28;20041;-49
2023/01/18 01:00:47;;;;;;;13.00;7.93;;;-1.70;99.90;;;;;;5056048;28;20433;-52
2023/01/18 01:03:14;;;;;;;13.90;8.15;;;-1.80;99.90;;;;;;5055910;28;20477;-52
2023/01/18 01:08:26;;;;;;;15.27;8.23;;;-1.80;99.90;;;;;;5055997;28;20378;-51
2023/01/18 01:10:52;;;;;;;17.75;11.13;;;-1.80;99.90;;;;;;5056051;28;20049;-50
2023/01/18 01:27:06;;;;;;;13.43;7.55;;;-1.80;99.90;;;;;;5056703;28;20377;-53
2023/01/18 01:29:33;;;;;;;16.13;7.57;;;-1.80;99.90;;;;;;5056369;28;20100;-52
2023/01/18 01:32:01;;;;;;;11.13;7.53;;;-1.80;99.90;;;;;;5057216;28;20072;-54
2023/01/18 01:34:28;;;;;;;8.80;6.68;;;-1.80;99.90;;;;;;5056619;28;20450;-52
2023/01/18 01:36:55;;;;;;;9.73;6.78;;;-1.80;99.90;;;;;;5055248;28;20049;-51
2023/01/18 01:39:22;;;;;;;10.18;7.25;;;-1.80;99.90;;;;;;5056671;28;20445;-52
2023/01/18 01:41:49;;;;;;;11.73;6.70;;;-1.90;99.90;;;;;;5055905;28;20041;-51
2023/01/18 01:44:15;;;;;;;9.95;6.63;;;-1.90;99.90;;;;;;5055132;28;20042;-51
2023/01/18 01:46:42;;;;;;;10.00;6.28;;;-1.90;99.90;;;;;;5055141;28;20056;-52
2023/01/18 01:49:09;;;;;;;10.75;6.45;;;-1.90;99.90;;;;;;5055036;28;20043;-54
2023/01/18 01:51:36;;;;;;;11.30;7.00;;;-1.90;99.90;;;;;;5055397;28;20045;-56
2023/01/18 01:54:02;;;;;;;12.98;7.20;;;-1.90;99.90;;;;;;5055066;28;20037;-54
2023/01/18 01:56:29;;;;;;;11.93;7.00;;;-1.90;99.90;;;;;;5055362;28;20045;-52
2023/01/18 01:58:56;;;;;;;9.85;6.00;;;-1.90;99.90;;;;;;5054804;28;20065;-52
2023/01/18 02:01:23;;;;;;;11.25;6.95;;;-2.00;99.90;;;;;;5054748;28;20090;-53
2023/01/18 02:03:50;;;;;;;8.50;6.00;;;-2.00;99.90;;;;;;5055128;28;20045;-55
2023/01/18 02:06:22;;;;;;;12.38;6.97;;;-2.00;99.90;;;;;;5054967;28;20071;-56
2023/01/18 02:08:49;;;;;;;10.38;6.28;;;-2.00;99.90;;;;;;5054637;28;20044;-54
2023/01/18 02:11:15;;;;;;;9.85;6.35;;;-2.00;99.90;;;;;;5054678;28;20094;-51
2023/01/18 02:13:42;;;;;;;9.23;5.72;;;-1.90;99.90;;;;;;5054842;28;20054;-55
2023/01/18 02:16:09;;;;;;;9.68;5.35;;;-1.90;99.90;;;;;;5053675;28;20451;-50
2023/01/18 02:18:36;;;;;;;9.15;5.63;;;-1.90;99.90;;;;;;5054828;28;20052;-54
2023/01/18 02:21:02;;;;;;;9.25;5.60;;;-1.90;99.90;;;;;;5053342;28;20072;-52
2023/01/18 02:23:29;;;;;;;10.68;5.47;;;-1.80;99.90;;;;;;5054494;28;20053;-51
2023/01/18 02:25:56;;;;;;;14.30;5.97;;;-1.80;99.90;;;;;;5054205;28;20496;-51
2023/01/18 02:28:22;;;;;;;10.65;5.93;;;-1.80;99.90;;;;;;5054399;28;20083;-53
2023/01/18 02:30:49;;;;;;;10.13;5.47;;;-1.80;99.90;;;;;;5053083;28;20072;-55
2023/01/18 02:33:16;;;;;;;9.60;5.72;;;-1.80;99.90;;;;;;5054283;28;20427;-53
2023/01/18 02:35:43;;;;;;;14.13;5.75;;;-1.80;99.90;;;;;;5054481;28;20098;-53
2023/01/18 02:38:09;;;;;;;11.07;5.78;;;-1.80;99.90;;;;;;5054269;28;20488;-54
2023/01/18 02:40:36;;;;;;;9.40;5.10;;;-1.80;99.90;;;;;;5054397;28;20098;-48
2023/01/18 02:48:34;;;;;;;9.40;5.65;;;-1.90;99.90;;;;;;5054184;28;20511;-53
2023/01/18 02:51:00;;;;;;;8.52;5.40;;;-1.90;99.90;;;;;;5054330;28;20073;-51
2023/01/18 02:53:27;;;;;;;6.72;4.90;;;-1.90;99.90;;;;;;5053982;28;20095;-53
2023/01/18 02:55:54;;;;;;;9.40;5.63;;;-1.90;99.90;;;;;;5054170;28;20045;-53
2023/01/18 02:58:20;;;;;;;9.50;5.65;;;-1.90;99.90;;;;;;5053829;28;20041;-50
2023/01/18 03:00:47;;;;;;;13.15;5.45;;;-1.90;99.90;;;;;;5053715;28;20040;-56
2023/01/18 03:03:14;;;;;;;10.27;5.45;;;-1.90;99.90;;;;;;5054015;28;20468;-55
2023/01/18 03:05:41;;;;;;;7.47;5.22;;;-2.00;99.90;;;;;;5053497;28;20135;-52
2023/01/18 03:08:08;;;;;;;9.10;5.30;;;-2.00;99.90;;;;;;5053493;28;20072;-52
2023/01/18 03:10:35;;;;;;;7.63;5.20;;;-2.00;99.90;;;;;;5053742;28;20043;-55
2023/01/18 03:13:01;;;;;;;8.90;5.15;;;-2.00;99.90;;;;;;5053419;28;20094;-49
2023/01/18 03:15:28;;;;;;;10.40;5.28;;;-2.00;99.90;;;;;;5053972;28;20041;-54
2023/01/18 03:17:56;;;;;;;8.60;5.13;;;-2.00;99.90;;;;;;5053582;28;20095;-54
2023/01/18 03:20:26;;;;;;;7.07;5.13;;;-2.00;99.90;;;;;;5053416;28;20045;-52
2023/01/18 03:25:38;;;;;;;10.40;5.30;;;-2.00;99.90;;;;;;5052147;28;20045;-52
2023/01/18 03:33:45;;;;;;;8.30;5.20;;;-2.00;99.90;;;;;;5053586;28;20053;-51
2023/01/18 03:36:12;;;;;;;9.52;5.75;;;-2.10;99.90;;;;;;5053367;28;20281;-53
2023/01/18 03:38:41;;;;;;;8.70;5.43;;;-2.10;99.90;;;;;;5053491;28;20473;-48
2023/01/18 03:41:07;;;;;;;6.35;4.63;;;-2.10;99.90;;;;;;5053635;28;20041;-52
2023/01/18 03:43:36;;;;;;;9.80;5.25;;;-2.10;99.90;;;;;;5053498;28;20041;-50
2023/01/18 03:46:03;;;;;;;9.32;5.07;;;-2.10;99.90;;;;;;5053097;28;20036;-51
2023/01/18 03:48:30;;;;;;;7.07;4.78;;;-2.10;99.90;;;;;;5053486;28;20563;-52
2023/01/18 03:50:59;;;;;;;8.45;4.63;;;-2.10;99.90;;;;;;5053673;28;20036;-55
2023/01/18 03:53:25;;;;;;;9.68;5.10;;;-2.10;99.90;;;;;;5052162;28;20037;-53
2023/01/18 03:55:52;;;;;;;9.02;5.65;;;-2.10;99.90;;;;;;5053203;28;20554;-49
2023/01/18 03:58:19;;;;;;;7.32;4.80;;;-2.10;99.90;;;;;;5053200;28;20056;-51
2023/01/18 04:00:46;;;;;;;6.38;4.47;;;-2.10;99.90;;;;;;5053391;28;20045;-54
2023/01/18 04:03:12;;;;;;;8.75;5.07;;;-2.00;99.90;;;;;;5052970;28;20037;-52
2023/01/18 04:05:39;;;;;;;7.53;4.93;;;-2.00;99.90;;;;;;5053390;28;20385;-52
2023/01/18 04:08:06;;;;;;;7.70;4.53;;;-2.00;99.90;;;;;;5053268;28;20064;-51
2023/01/18 04:10:33;;;;;;;6.93;4.95;;;-1.90;99.90;;;;;;5053144;28;20052;-51
2023/01/18 04:12:59;;;;;;;8.88;4.65;;;-1.90;99.90;;;;;;5053018;28;20440;-53
2023/01/18 04:15:27;;;;;;;7.35;4.10;;;-1.90;99.90;;;;;;5053133;28;20119;-54
2023/01/18 04:17:54;;;;;;;8.57;4.05;;;-1.80;99.90;;;;;;5052951;28;20100;-52
2023/01/18 04:20:21;;;;;;;9.77;4.80;;;-1.80;99.90;;;;;;5052800;28;20116;-52
2023/01/18 04:22:48;;;;;;;8.25;4.85;;;-1.80;99.90;;;;;;5052887;28;20357;-56
2023/01/18 04:25:14;;;;;;;7.00;4.43;;;-1.70;99.90;;;;;;5052715;28;20480;-52
2023/01/18 04:27:41;;;;;;;7.35;4.30;;;-1.70;99.90;;;;;;5052826;28;20045;-50
2023/01/18 04:30:08;;;;;;;9.07;4.78;;;-1.60;99.90;;;;;;5052669;28;20045;-49
2023/01/18 04:32:35;;;;;;;9.23;5.05;;;-1.70;99.90;;;;;;5052852;28;20033;-54
2023/01/18 04:35:01;;;;;;;9.98;5.25;;;-1.60;99.90;;;;;;5052977;28;20045;-53
2023/01/18 04:37:32;;;;;;;11.57;4.40;;;-1.60;99.90;;;;;;5053026;28;20045;-49
2023/01/18 04:39:59;;;;;;;10.02;5.18;;;-1.60;99.90;;;;;;5054500;28;20075;-51
2023/01/18 04:42:26;;;;;;;8.98;4.70;;;-1.60;99.90;;;;;;5056592;28;20435;-53
2023/01/18 04:44:53;;;;;;;9.43;4.85;;;-1.60;99.90;;;;;;5056764;28;20129;-52
2023/01/18 04:47:19;;;;;;;7.45;4.10;;;-1.60;99.90;;;;;;5056284;28;20067;-51
2023/01/18 04:49:46;;;;;;;8.68;4.75;;;-1.60;99.90;;;;;;5056532;28;20460;-52
2023/01/18 04:52:13;;;;;;;9.30;4.20;;;-1.60;99.90;;;;;;5056382;28;20040;-49
2023/01/18 04:54:40;;;;;;;10.68;4.43;;;-1.60;99.90;;;;;;5055956;28;20071;-55
2023/01/18 04:57:06;;;;;;;8.63;4.45;;;-1.50;99.90;;;;;;5056075;28;20044;-51
2023/01/18 04:59:33;;;;;;;6.40;4.13;;;-1.60;99.90;;;;;;5056221;28;20362;-51
2023/01/18 05:02:00;;;;;;;7.47;3.92;;;-1.60;99.90;;;;;;5056019;28;20479;-49
2023/01/18 05:04:27;;;;;;;7.80;4.75;;;-1.60;99.90;;;;;;5056521;28;20411;-55
2023/01/18 05:06:53;;;;;;;7.35;4.15;;;-1.50;99.90;;;;;;5055521;28;20041;-51
2023/01/18 05:09:20;;;;;;;7.32;4.30;;;-1.50;99.90;;;;;;5055865;28;20075;-53
2023/01/18 05:11:47;;;;;;;8.25;3.90;;;-1.50;99.90;;;;;;5055846;28;20057;-51
2023/01/18 05:14:14;;;;;;;6.07;3.60;;;-1.50;99.90;;;;;;5056021;28;20045;-53
2023/01/18 05:16:43;;;;;;;9.80;3.85;;;-1.40;99.90;;;;;;5055866;28;20095;-56
2023/01/18 05:19:10;;;;;;;9.10;3.13;;;-1.40;99.90;;;;;;5055631;28;20050;-57
2023/01/18 05:21:37;;;;;;;8.50;3.90;;;-1.30;99.90;;;;;;5055407;28;20087;-55
2023/01/18 05:24:03;;;;;;;10.73;3.47;;;-1.20;99.90;;;;;;5055978;28;20048;-56
2023/01/18 05:26:30;;;;;;;7.07;3.38;;;-1.20;99.90;;;;;;5055476;28;20079;-56
2023/01/18 05:28:57;;;;;;;6.40;3.67;;;-1.10;99.90;;;;;;5055316;28;20041;-56
2023/01/18 05:31:24;;;;;;;6.18;3.42;;;-1.10;99.90;;;;;;5055432;28;20041;-53
2023/01/18 05:33:50;;;;;;;6.95;3.72;;;-1.10;99.90;;;;;;5055209;28;20045;-56
2023/01/18 05:36:17;;;;;;;6.53;3.15;;;-1.10;99.90;;;;;;5055123;28;20049;-57
2023/01/18 05:38:44;;;;;;;7.03;3.58;;;-1.10;99.90;;;;;;5055484;28;20041;-57
2023/01/18 05:41:11;;;;;;;6.25;3.22;;;-1.10;99.90;;;;;;5055400;28;20099;-57
2023/01/18 05:43:37;;;;;;;7.47;3.40;;;-1.10;99.90;;;;;;5055104;28;20036;-55
2023/01/18 05:46:04;;;;;;;6.05;3.10;;;-1.10;99.90;;;;;;5055025;28;20125;-56
2023/01/18 05:48:31;;;;;;;8.02;3.28;;;-1.10;99.90;;;;;;5055133;28;20460;-56
2023/01/18 05:50:58;;;;;;;6.50;3.30;;;-1.10;99.90;;;;;;5055380;28;20087;-56
2023/01/18 05:53:25;;;;;;;8.63;3.50;;;-1.10;99.90;;;;;;5055142;28;20405;-52
2023/01/18 05:55:51;;;;;;;7.05;3.35;;;-1.10;99.90;;;;;;5053563;28;20098;-54
2023/01/18 05:58:18;;;;;;;9.70;3.40;;;-1.10;99.90;;;;;;5054832;28;20041;-52
2023/01/18 06:00:45;;;;;;;12.48;3.20;;;-1.10;99.90;;;;;;5054934;28;20045;-51
2023/01/18 06:03:12;;;;;;;6.40;3.45;;;-1.20;99.90;;;;;;5054579;28;20047;-52
2023/01/18 06:05:39;;;;;;;7.28;2.83;;;-1.20;99.90;;;;;;5054306;28;20550;-50
2023/01/18 06:08:05;;;;;;;8.48;3.25;;;-1.20;99.90;;;;;;5054470;28;20061;-50
2023/01/18 06:10:32;;;;;;;7.05;3.35;;;-1.20;99.90;;;;;;5054620;28;20072;-49
2023/01/18 06:12:59;;;;;;;8.48;2.90;;;-1.20;99.90;;;;;;5054200;28;20420;-49
2023/01/18 06:15:26;;;;;;;5.13;2.50;;;-1.20;99.90;;;;;;5054562;28;20041;-51
2023/01/18 06:17:53;;;;;;;8.80;3.10;;;-1.10;99.90;;;;;;5054641;28;20476;-51
2023/01/18 06:20:20;;;;;;;7.25;3.25;;;-1.10;99.90;;;;;;5053270;28;20098;-52
2023/01/18 06:22:47;;;;;;;8.50;2.75;;;-1.10;99.90;;;;;;5054188;28;20492;-55
2023/01/18 06:25:13;;;;;;;6.95;2.85;;;-1.10;99.90;;;;;;5054620;28;20044;-53
2023/01/18 06:27:40;;;;;;;9.60;2.95;;;-1.00;99.90;;;;;;5053492;28;20532;-50
2023/01/18 06:30:09;;;;;;;6.50;2.72;;;-1.00;99.90;;;;;;5054426;28;20041;-51
2023/01/18 06:32:36;;;;;;;8.32;3.33;;;-1.00;99.90;;;;;;5054575;28;20037;-51
2023/01/18 06:35:03;;;;;;;8.50;3.28;;;-1.00;99.90;;;;;;5054266;28;20412;-52
2023/01/18 06:37:30;;;;;;;9.27;2.85;;;-1.00;99.90;;;;;;5052842;28;20376;-52
2023/01/18 06:39:56;;;;;;;8.13;3.05;;;-1.00;99.90;;;;;;5054090;28;20041;-47
2023/01/18 06:42:23;;;;;;;9.75;2.90;;;-0.90;99.90;;;;;;5052908;28;20099;-54
2023/01/18 06:44:50;;;;;;;7.95;2.80;;;-0.90;99.90;;;;;;5053950;28;20494;-53
2023/01/18 06:47:18;;;;;;;5.72;3.00;;;-0.90;99.90;;;;;;5053446;28;20041;-54
2023/01/18 06:49:46;;;;;;;6.90;3.05;;;-0.90;99.90;;;;;;5053616;28;20043;-51
2023/01/18 06:52:13;;;;;;;6.15;2.90;;;-0.80;99.90;;;;;;5052563;28;20419;-50
2023/01/18 06:54:40;;;;;;;9.27;2.88;;;-0.80;99.90;;;;;;5052678;28;20107;-51
2023/01/18 06:57:06;;;;;;;4.93;2.50;;;-0.80;99.90;;;;;;5054012;28;20102;-52
2023/01/18 06:59:33;;;;;;;5.95;2.97;;;-0.80;99.90;;;;;;5053638;28;20094;-48
2023/01/18 07:02:00;;;;;;;6.72;2.72;;;-0.80;99.90;;;;;;5053204;28;20053;-48
2023/01/18 07:04:27;;;;;;;6.15;3.15;;;-0.80;99.90;;;;;;5054158;28;20591;-49
2023/01/18 07:06:53;;;;;;;9.55;2.70;;;-0.70;99.90;;;;;;5053411;28;20033;-53
2023/01/18 07:09:20;;;;;;;8.13;2.80;;;-0.70;99.90;;;;;;5053604;28;20041;-53
2023/01/18 07:11:47;;;;;;;7.25;2.75;;;-0.70;99.90;;;;;;5052238;28;20053;-50
2023/01/18 07:14:14;;;;;;;5.65;2.83;;;-0.70;99.90;;;;;;5052433;28;20087;-51
2023/01/18 07:16:41;;;;;;;4.70;2.60;;;-0.70;99.90;;;;;;5053741;28;20049;-51
2023/01/18 07:19:08;;;;;;;7.32;2.83;;;-0.60;99.90;;;;;;5052410;28;20045;-53
2023/01/18 07:21:35;;;;;;;7.65;2.92;;;-0.60;99.90;;;;;;5053491;28;20049;-51
2023/01/18 07:24:01;;;;;;;8.85;3.58;;;-0.60;99.90;;;;;;5053374;28;20102;-53
2023/01/18 07:26:28;;;;;;;6.57;3.22;;;-0.60;99.90;;;;;;5053503;28;20040;-53
2023/01/18 07:28:55;;;;;;;6.00;3.00;;;-0.60;99.90;;;;;;5053736;28;20048;-52
2023/01/18 07:31:23;;;;;;;7.63;3.40;;;-0.60;99.90;;;;;;5053438;28;20041;-49
2023/01/18 07:33:51;;;;;;;6.88;2.88;;;-0.60;99.90;;;;;;5053893;28;20369;-51
2023/01/18 07:36:18;;;;;;;6.05;3.13;;;-0.60;99.90;;;;;;5053094;28;20047;-49
2023/01/18 07:38:46;;;;;;;7.18;3.22;;;-0.60;99.90;;;;;;5053444;28;20067;-47
2023/01/18 07:41:15;;;;;;;7.03;3.13;;;-0.60;99.90;;;;;;5053278;28;20060;-50
2023/01/18 07:43:43;;;;;;;6.32;3.17;;;-0.60;99.90;;;;;;5051783;28;20071;-50
2023/01/18 07:46:10;;;;;;;9.55;3.40;;;-0.60;99.90;;;;;;5052918;28;20041;-49
2023/01/18 07:48:37;;;;;;;8.98;3.05;;;-0.60;99.90;;;;;;5052081;28;20041;-50
2023/01/18 07:51:04;;;;;;;7.07;3.53;;;-0.60;99.90;;;;;;5053310;28;20048;-55
2023/01/18 07:53:31;;;;;;;8.27;2.95;;;-0.60;99.90;;;;;;5052939;28;20106;-53
2023/01/18 07:55:58;;;;;;;6.68;3.13;;;-0.70;99.90;;;;;;5052999;28;20044;-53
2023/01/18 07:58:25;;;;;;;7.00;2.83;;;-0.70;99.90;;;;;;5052897;28;20460;-53
2023/01/18 08:00:51;;;;;;;6.75;3.22;;;-0.70;99.90;;;;;;5053251;28;20061;-53
2023/01/18 08:03:18;;;;;;;5.70;3.38;;;-0.70;99.90;;;;;;5053017;28;20534;-55
2023/01/18 08:05:45;;;;;;;7.53;3.13;;;-0.70;99.90;;;;;;5052907;28;20040;-50
2023/01/18 08:08:11;;;;;;;7.00;3.58;;;-0.70;99.90;;;;;;5052009;28;20056;-49
2023/01/18 08:10:38;;;;;;;8.52;3.75;;;-0.80;99.90;;;;;;5053339;28;20124;-52
2023/01/18 08:13:05;;;;;;;7.40;4.10;;;-0.80;99.90;;;;;;5052892;28;20049;-51
2023/01/18 08:15:32;;;;;;;8.13;3.65;;;-0.80;99.90;;;;;;5056977;28;20037;-52
2023/01/18 08:17:59;;;;;;;8.65;4.80;;;-0.80;99.90;;;;;;5055625;28;20044;-52
2023/01/18 08:20:25;;;;;;;8.77;3.53;;;-0.80;99.90;;;;;;5056434;28;20048;-53
2023/01/18 08:22:52;;;;;;;9.15;3.75;;;-0.80;99.90;;;;;;5055341;28;20041;-47
2023/01/18 08:25:19;;;;;;;6.95;3.45;;;-0.80;99.90;;;;;;5056475;28;20049;-54
2023/01/18 08:27:46;;;;;;;7.15;3.50;;;-0.80;99.90;;;;;;5056377;28;20166;-51
2023/01/18 08:30:12;;;;;;;8.15;3.80;;;-0.80;99.90;;;;;;5056393;28;20045;-53
2023/01/18 08:32:39;;;;;;;6.47;4.07;;;-0.80;99.90;;;;;;5056448;28;20040;-52
2023/01/18 08:35:06;;;;;;;8.93;3.30;;;-0.80;99.90;;;;;;5056174;28;20500;-49
2023/01/18 08:37:33;;;;;;;5.22;3.33;;;-0.80;99.90;;;;;;5056667;28;20044;-53
2023/01/18 08:40:00;;;;;;;9.27;3.70;;;-0.80;99.90;;;;;;5039631;28;20041;-53
2023/01/18 08:42:26;;;;;;;7.05;3.67;;;-0.80;99.90;;;;;;5052391;28;20045;-55
2023/01/18 08:44:53;;;;;;;13.38;4.38;;;-0.80;99.90;;;;;;5055927;28;20040;-55
2023/01/18 08:47:20;;;;;;;8.30;3.70;;;-0.80;99.90;;;;;;5049273;28;20037;-51
2023/01/18 08:49:47;;;;;;;7.90;4.40;;;-0.80;99.90;;;;;;5049373;28;20045;-53
2023/01/18 08:52:14;;;;;;;9.30;4.75;;;-0.80;99.90;;;;;;5072515;28;20049;-55
2023/01/18 08:54:41;;;;;;;12.25;4.00;;;-0.80;99.90;;;;;;5054453;28;20103;-53
2023/01/18 08:57:08;;;;;;;8.93;3.78;;;-0.80;99.90;;;;;;5055588;28;20479;-52
2023/01/18 08:59:34;;;;;;;9.35;3.50;;;-0.80;99.90;;;;;;5054587;28;20053;-54
2023/01/18 09:02:01;;;;;;;7.03;3.50;;;-0.80;99.90;;;;;;5054890;28;20090;-50
2023/01/18 09:04:28;;;;;;;8.73;3.67;;;-0.70;99.90;;;;;;5055712;28;20041;-52
2023/01/18 09:06:55;;;;;;;50.28;6.15;;;-0.80;99.90;;;;;;5055308;28;20043;-54
2023/01/18 09:09:21;;;;;;;15.02;9.10;;;-0.70;99.90;;;;;;5055750;28;20041;-56
2023/01/18 09:11:48;;;;;;;9.80;4.30;;;-0.70;99.90;;;;;;5055078;28;20056;-54
2023/01/18 09:14:15;;;;;;;8.20;3.72;;;-0.60;99.90;;;;;;5055699;28;20092;-51
2023/01/18 09:16:42;;;;;;;7.07;3.58;;;-0.60;99.90;;;;;;5055449;28;20528;-50
2023/01/18 09:19:09;;;;;;;10.63;3.85;;;-0.60;99.90;;;;;;5054299;28;20051;-48
2023/01/18 09:21:35;;;;;;;12.02;3.72;;;-0.60;99.90;;;;;;5059228;28;20045;-52
2023/01/18 09:24:02;;;;;;;12.35;3.90;;;-0.50;99.90;;;;;;5068096;28;20067;-47
2023/01/18 09:26:29;;;;;;;10.48;3.70;;;-0.50;99.90;;;;;;5069001;28;20082;-54
2023/01/18 09:28:56;;;;;;;7.38;3.33;;;-0.40;99.90;;;;;;5065274;28;20488;-52
2023/01/18 09:31:23;;;;;;;9.95;3.92;;;-0.40;99.90;;;;;;5063825;28;20108;-53
2023/01/18 09:33:50;;;;;;;8.98;3.38;;;-0.30;99.90;;;;;;5055173;28;20041;-49
2023/01/18 09:36:22;;;;;;;5.43;3.65;;;-0.30;99.90;;;;;;5054958;28;20055;-54
2023/01/18 09:38:49;;;;;;;9.80;3.65;;;-0.20;99.90;;;;;;5055013;28;20045;-47
2023/01/18 09:41:16;;;;;;;7.30;3.22;;;-0.20;99.90;;;;;;5054885;28;20045;-51
2023/01/18 09:43:46;;;;;;;6.80;3.58;;;-0.10;99.90;;;;;;5053692;28;20072;-48
2023/01/18 09:46:12;;;;;;;6.60;3.80;;;-0.10;99.90;;;;;;5054755;28;20045;-52
2023/01/18 09:48:39;;;;;;;9.55;3.65;;;0.00;99.90;;;;;;5054714;28;20365;-49
2023/01/18 09:51:06;;;;;;;6.18;3.58;;;0.10;99.90;;;;;;5054653;28;20040;-51
2023/01/18 09:53:33;;;;;;;7.75;3.92;;;0.10;99.90;;;;;;5054385;28;20056;-53
2023/01/18 09:56:00;;;;;;;8.13;3.90;;;0.20;99.90;;;;;;5054945;28;20063;-55
2023/01/18 09:58:26;;;;;;;6.00;3.28;;;0.30;99.90;;;;;;5053384;28;20051;-53
2023/01/18 10:00:53;;;;;;;6.38;3.33;;;0.40;99.90;;;;;;5054606;28;20068;-49
2023/01/18 10:03:20;;;;;;;6.03;3.20;;;0.40;99.90;;;;;;5054284;28;20073;-54
2023/01/18 10:05:47;;;;;;;8.02;3.30;;;0.50;99.90;;;;;;5054542;28;20036;-55
2023/01/18 10:08:14;;;;;;;6.35;2.95;;;0.50;99.90;;;;;;5054403;28;20096;-48
2023/01/18 10:10:42;;;;;;;9.32;3.42;;;0.50;99.90;;;;;;5053207;28;20044;-53
2023/01/18 10:13:09;;;;;;;5.80;3.13;;;0.60;99.90;;;;;;5054025;28;20057;-55
2023/01/18 10:15:36;;;;;;;6.85;3.40;;;0.60;99.90;;;;;;5053159;28;20140;-55
2023/01/18 10:18:02;;;;;;;8.73;3.60;;;0.70;99.90;;;;;;5054244;28;20102;-51
2023/01/18 10:20:30;;;;;;;7.30;3.17;;;0.80;99.90;;;;;;5054064;28;20059;-51
2023/01/18 10:22:56;;;;;;;11.25;3.53;;;0.80;99.90;;;;;;5053818;28;20511;-51
2023/01/18 10:25:24;;;;;;;5.80;3.13;;;0.90;99.90;;;;;;5053900;28;20139;-52
2023/01/18 10:27:51;;;;;;;7.63;3.30;;;0.90;99.90;;;;;;5053909;28;20116;-51
2023/01/18 10:30:17;;;;;;;23.42;4.18;;;1.00;99.90;;;;;;5053828;28;20037;-53
2023/01/18 10:32:44;;;;;;;7.28;3.55;;;1.00;99.90;;;;;;5053935;28;20103;-54
2023/01/18 10:35:11;;;;;;;6.15;3.33;;;1.10;99.90;;;;;;5052607;28;20041;-51
2023/01/18 10:37:41;;;;;;;6.72;3.35;;;1.10;99.90;;;;;;5069999;28;20484;-51
2023/01/18 10:40:09;;;;;;;9.35;3.30;;;1.20;99.90;;;;;;5073027;28;20089;-56
2023/01/18 10:42:35;;;;;;;8.25;3.72;;;1.30;99.90;;;;;;5070614;28;20036;-56
2023/01/18 10:45:02;;;;;;;9.35;3.65;;;1.30;99.90;;;;;;5053714;28;20052;-55
2023/01/18 10:47:29;;;;;;;8.38;3.90;;;1.30;99.90;;;;;;5053440;28;20048;-53
2023/01/18 10:49:56;;;;;;;6.63;3.22;;;1.30;99.90;;;;;;5053700;28;20557;-49
2023/01/18 10:52:23;;;;;;;7.00;3.45;;;1.40;99.90;;;;;;5053709;28;20048;-54
2023/01/18 10:54:50;;;;;;;8.75;4.18;;;1.40;99.90;;;;;;5053703;28;20450;-51
2023/01/18 10:57:18;;;;;;;7.70;4.00;;;1.40;99.90;;;;;;5052227;28;20045;-54
2023/01/18 10:59:44;;;;;;;5.93;3.47;;;1.50;99.90;;;;;;5053723;28;20041;-56
2023/01/18 11:02:11;;;;;;;10.02;3.60;;;1.50;99.90;;;;;;5053292;28;20068;-53
2023/01/18 11:04:40;;;;;;;7.30;3.75;;;1.50;99.90;;;;;;5053448;28;20507;-50
2023/01/18 11:07:07;;;;;;;7.65;3.70;;;1.60;99.90;;;;;;5053668;28;20069;-55
2023/01/18 11:09:34;;;;;;;12.50;4.70;;;1.60;99.90;;;;;;5070205;28;20079;-53
2023/01/18 11:14:46;;;;;;;13.15;4.60;;;1.60;99.90;;;;;;5052504;28;20056;-51
2023/01/18 11:17:16;;;;;;;9.80;4.30;;;1.70;99.90;;;;;;5046635;28;20098;-50
2023/01/18 11:19:45;;;;;;;8.93;4.78;;;1.80;99.90;;;;;;5053252;28;20041;-52
2023/01/18 11:22:12;;;;;;;8.40;4.40;;;1.80;99.90;;;;;;5052917;28;20045;-53
2023/01/18 11:24:39;;;;;;;9.73;4.38;;;1.80;99.90;;;;;;5053025;28;20123;-52
2023/01/18 11:27:05;;;;;;;8.35;4.47;;;1.80;99.90;;;;;;5051728;28;20052;-52
2023/01/18 11:29:32;;;;;;;10.07;5.07;;;1.80;99.90;;;;;;5053008;28;20037;-53
2023/01/18 11:31:59;;;;;;;10.70;4.47;;;1.80;99.90;;;;;;5052795;28;20037;-52
2023/01/18 11:34:26;;;;;;;8.63;4.25;;;1.90;99.90;;;;;;5052815;28;20099;-53
2023/01/18 11:36:53;;;;;;;8.57;4.63;;;1.90;99.90;;;;;;5045109;28;20098;-50
2023/01/18 11:39:20;;;;;;;10.90;5.10;;;1.90;99.90;;;;;;5046825;28;20049;-50
2023/01/18 11:41:47;;;;;;;5.72;3.97;;;1.90;99.90;;;;;;5046560;28;20488;-52
2023/01/18 11:44:14;;;;;;;5.57;4.22;;;2.00;99.90;;;;;;5052433;28;20052;-51
2023/01/18 11:46:41;;;;;;;7.68;4.40;;;1.90;99.90;;;;;;5045978;28;20049;-53
2023/01/18 11:49:07;;;;;;;8.27;3.72;;;2.00;99.90;;;;;;5074086;28;20043;-51
2023/01/18 11:51:34;;;;;;;8.63;4.68;;;2.00;99.90;;;;;;5076344;28;20376;-50
2023/01/18 11:54:01;;;;;;;7.40;4.25;;;2.00;99.90;;;;;;5075383;28;20067;-49
2023/01/18 11:56:28;;;;;;;9.05;4.70;;;2.00;99.90;;;;;;5076464;28;20033;-55
2023/01/18 11:58:55;;;;;;;6.72;3.92;;;2.10;99.90;;;;;;5076469;28;20113;-51
2023/01/18 12:01:22;;;;;;;10.20;4.45;;;2.10;99.90;;;;;;5075961;28;20086;-53
2023/01/18 12:03:48;;;;;;;6.88;4.10;;;2.20;99.90;;;;;;5076013;28;20102;-53
2023/01/18 12:06:15;;;;;;;8.88;4.25;;;2.20;99.90;;;;;;5075610;28;20074;-50
2023/01/18 12:08:42;;;;;;;9.77;4.55;;;2.20;99.90;;;;;;5075861;28;20040;-51
2023/01/18 12:11:09;;;;;;;8.65;4.53;;;2.30;99.90;;;;;;5075938;28;20064;-53
2023/01/18 12:13:35;;;;;;;8.23;4.30;;;2.30;99.90;;;;;;5075633;28;20056;-55
2023/01/18 12:16:02;;;;;;;7.97;3.95;;;2.40;99.90;;;;;;5055120;28;20040;-52
2023/01/18 12:18:29;;;;;;;7.90;3.75;;;2.40;99.90;;;;;;5056437;28;20037;-56
2023/01/18 12:20:57;;;;;;;8.13;3.85;;;2.40;99.90;;;;;;5056373;28;20036;-53
2023/01/18 12:23:23;;;;;;;10.20;3.88;;;2.50;99.90;;;;;;5056412;28;20465;-53
2023/01/18 12:25:50;;;;;;;7.65;3.88;;;2.50;99.90;;;;;;5056103;28;20044;-52
2023/01/18 12:28:36;;;;;;;7.78;3.58;;;2.50;99.90;;;;;;5056480;28;20044;-53
2023/01/18 12:31:03;;;;;;;8.02;3.50;;;2.60;99.90;;;;;;5056175;28;20500;-54
2023/01/18 12:33:29;;;;;;;5.43;3.00;;;2.60;99.90;;;;;;5056214;28;20069;-48
2023/01/18 12:36:08;;;;;;;7.47;2.60;;;2.70;99.90;;;;;;5054775;28;20040;-55
2023/01/18 12:38:35;;;;;;;5.25;2.80;;;2.70;99.90;;;;;;5054836;28;20048;-51
2023/01/18 12:41:03;;;;;;;6.70;2.65;;;2.70;99.90;;;;;;5056136;28;20394;-49
2023/01/18 12:43:30;;;;;;;5.80;2.58;;;2.80;99.90;;;;;;5056127;28;20041;-56
2023/01/18 12:45:57;;;;;;;8.02;3.10;;;2.90;99.90;;;;;;5053895;28;20491;-50
2023/01/18 12:48:24;;;;;;;6.90;2.90;;;2.90;99.90;;;;;;5056002;28;20486;-54
2023/01/18 12:50:50;;;;;;;5.80;2.90;;;2.90;99.90;;;;;;5071187;28;20090;-53
2023/01/18 12:53:17;;;;;;;7.70;3.30;;;3.00;99.90;;;;;;5075340;28;20423;-56
2023/01/18 12:55:44;;;;;;;5.57;2.78;;;3.00;99.90;;;;;;5075225;28;20053;-54
2023/01/18 12:58:13;;;;;;;7.20;3.10;;;3.10;99.90;;;;;;5074725;28;20094;-56
2023/01/18 13:00:39;;;;;;;5.55;3.03;;;3.20;99.90;;;;;;5073930;28;20054;-53
2023/01/18 13:03:06;;;;;;;7.00;2.97;;;3.30;99.90;;;;;;5074881;28;20097;-51
2023/01/18 13:05:36;;;;;;;5.55;2.47;;;3.40;99.90;;;;;;5075124;28;20045;-51
2023/01/18 13:08:05;;;;;;;7.88;2.55;;;3.50;99.90;;;;;;5074766;28;20040;-50
2023/01/18 13:10:31;;;;;;;6.10;2.60;;;3.60;99.90;;;;;;5074805;28;20036;-47
2023/01/18 13:12:58;;;;;;;8.43;3.08;;;3.70;99.90;;;;;;5074496;28;20064;-55
2023/01/18 13:15:25;;;;;;;5.63;2.72;;;3.70;99.90;;;;;;5069746;28;20479;-50
2023/01/18 13:17:52;;;;;;;4.93;3.00;;;3.70;99.90;;;;;;5055218;28;20484;-51